Portavogie, United Kingdom
Current Conditions -  °F | °C
As of 1:20 PM on Thursday 18 Dec 2014 (Local Time) from EGAC Reporting Station
Broken Clouds Broken Clouds  
Wind Chill: 11°   Ceiling: 4500
Heat Index: 11°   Visibility: 6mi
Dew Point:   Wind: 17mph
Humidity: 88%   Direction: 260°W
Pressure: 29.44"   Gusts: NA
Location:  54.46°N, 5.44°W
Report Text: EGAC 181320Z 26015KT 9999 FEW011 SCT022 BKN045 11/09 Q0997
Loading
Personal Weather Stations






























Interactive Weather Map New forecast layout! Learn more

10-Day Weather Forecast

Advertisements
Track Severe Weather on mobile